Time;durP1;ratioP1;P1;durP2;ratioP2;P2;SDS_P1;SDS_P2;PMS_P1;PMS_P2;Temp;Humidity;BMP_temperature;BMP_pressure;BME280_temperature;BME280_humidity;BME280_pressure;Samples;Min_cycle;Max_cycle;Signal;HPM_P1;HPM_P2
2022/12/17 13:08:14;;;;;;;6.22;3.20;;;;;;;;;;5040776;28;20105;-81
2022/12/17 13:10:40;;;;;;;3.92;2.58;;;;;;;;;;5037523;28;20021;-80
2022/12/17 13:13:12;;;;;;;4.20;2.90;;;;;;;;;;5032841;28;20116;-83
2022/12/17 13:15:45;;;;;;;3.10;2.80;;;;;;;;;;5029920;28;20033;-83
2022/12/17 13:18:34;;;;;;;3.80;2.63;;;;;;;;;;5030865;28;20052;-83
2022/12/17 13:21:04;;;;;;;2.72;2.42;;;;;;;;;;5034925;28;20158;-85
2022/12/17 13:23:35;;;;;;;2.90;2.67;;;;;;;;;;5032807;28;20030;-77
2022/12/17 13:26:11;;;;;;;7.05;4.65;;;;;;;;;;5039838;28;20025;-78
2022/12/17 13:28:37;;;;;;;5.05;3.70;;;;;;;;;;5028573;28;20030;-83
2022/12/17 13:31:15;;;;;;;9.40;6.00;;;;;;;;;;5026235;28;20028;-81
2022/12/17 13:33:53;;;;;;;5.15;3.38;;;;;;;;;;5035413;28;20056;-80
2022/12/17 13:36:37;;;;;;;4.10;3.05;;;;;;;;;;5033522;28;20089;-81
2022/12/17 13:39:08;;;;;;;7.60;3.88;;;;;;;;;;5020923;28;20047;-79
2022/12/17 13:41:35;;;;;;;8.13;4.88;;;;;;;;;;5044280;28;20487;-77
2022/12/17 13:44:17;;;;;;;5.93;3.42;;;;;;;;;;5049425;28;20026;-79
2022/12/17 13:46:45;;;;;;;10.48;4.68;;;;;;;;;;5044423;28;20079;-77
2022/12/17 13:49:19;;;;;;;9.00;4.93;;;;;;;;;;5047587;28;20060;-78
2022/12/17 13:51:45;;;;;;;13.45;7.03;;;;;;;;;;5047507;28;20112;-76
2022/12/17 13:54:14;;;;;;;17.38;8.05;;;;;;;;;;5031652;28;20534;-75
2022/12/17 13:56:41;;;;;;;9.48;5.28;;;;;;;;;;5043456;28;20036;-78
2022/12/17 13:59:07;;;;;;;28.83;21.92;;;;;;;;;;5043178;28;20049;-77
2022/12/17 14:01:42;;;;;;;20.48;15.52;;;;;;;;;;5034269;28;20021;-78
2022/12/17 14:04:18;;;;;;;12.82;9.35;;;;;;;;;;5033695;28;20021;-76
2022/12/17 14:06:44;;;;;;;14.60;10.27;;;;;;;;;;5048060;28;20037;-78
2022/12/17 14:09:16;;;;;;;14.30;8.23;;;;;;;;;;5045796;28;20490;-78
2022/12/17 14:14:39;;;;;;;13.13;7.38;;;;;;;;;;5050016;28;20048;-77
2022/12/17 14:17:05;;;;;;;8.25;5.30;;;;;;;;;;5046218;28;20045;-75
2022/12/17 14:19:32;;;;;;;5.40;4.78;;;;;;;;;;5048849;28;20025;-76
2022/12/17 14:21:58;;;;;;;16.02;13.90;;;;;;;;;;5044250;28;20030;-77
2022/12/17 14:24:27;;;;;;;6.22;4.72;;;;;;;;;;5053882;28;20024;-77
2022/12/17 14:26:55;;;;;;;6.78;6.15;;;;;;;;;;5048903;28;20101;-76
2022/12/17 14:29:26;;;;;;;8.75;7.82;;;;;;;;;;5041630;28;20049;-76
2022/12/17 14:31:56;;;;;;;17.85;14.52;;;;;;;;;;5036983;28;20026;-77
2022/12/17 14:34:23;;;;;;;5.35;4.38;;;;;;;;;;5030528;28;20028;-78
2022/12/17 14:36:53;;;;;;;4.78;4.07;;;;;;;;;;5042260;28;20026;-77
2022/12/17 14:39:22;;;;;;;6.13;5.50;;;;;;;;;;5026184;28;20098;-77
2022/12/17 14:44:33;;;;;;;3.63;3.10;;;;;;;;;;5043020;28;20075;-75
2022/12/17 14:47:18;;;;;;;13.35;12.15;;;;;;;;;;5046689;28;20051;-75
2022/12/17 14:50:14;;;;;;;13.60;12.30;;;;;;;;;;5050867;28;20040;-77
2022/12/17 14:52:53;;;;;;;8.85;7.72;;;;;;;;;;5070060;28;20025;-75
2022/12/17 14:55:31;;;;;;;20.75;18.55;;;;;;;;;;5050957;28;20025;-77
2022/12/17 14:58:13;;;;;;;17.50;15.88;;;;;;;;;;5051027;28;20096;-79
2022/12/17 15:00:42;;;;;;;25.58;23.25;;;;;;;;;;5047260;28;20074;-76
2022/12/17 15:03:28;;;;;;;10.77;6.70;;;;;;;;;;5039217;28;20017;-79
2022/12/17 15:05:56;;;;;;;7.25;5.20;;;;;;;;;;5045743;28;20021;-77
2022/12/17 15:08:23;;;;;;;9.27;5.25;;;;;;;;;;5034267;28;20029;-77
2022/12/17 15:10:49;;;;;;;6.85;5.32;;;;;;;;;;5043098;28;20032;-78
2022/12/17 15:13:21;;;;;;;8.75;6.13;;;;;;;;;;5052983;28;20030;-76
2022/12/17 15:16:09;;;;;;;6.85;4.95;;;;;;;;;;5052242;28;20487;-81
2022/12/17 15:18:36;;;;;;;6.60;5.93;;;;;;;;;;5031167;28;20391;-76
2022/12/17 15:21:03;;;;;;;20.52;18.42;;;;;;;;;;5042581;28;20021;-77
2022/12/17 15:23:30;;;;;;;318.70;182.85;;;;;;;;;;5050362;28;20495;-78
2022/12/17 15:25:59;;;;;;;445.05;242.18;;;;;;;;;;5055873;28;20025;-73
2022/12/17 15:28:25;;;;;;;513.95;294.45;;;;;;;;;;5053956;28;20025;-77
2022/12/17 15:31:05;;;;;;;268.45;162.55;;;;;;;;;;5052314;28;20030;-76
2022/12/17 15:33:31;;;;;;;53.08;36.10;;;;;;;;;;5052605;28;20025;-77
2022/12/17 15:35:58;;;;;;;20.40;13.93;;;;;;;;;;5044008;28;20025;-77
2022/12/17 15:38:24;;;;;;;20.45;17.23;;;;;;;;;;5048989;28;20080;-76
2022/12/17 15:40:51;;;;;;;17.73;11.55;;;;;;;;;;5060654;28;20103;-77
2022/12/17 15:43:26;;;;;;;13.15;8.65;;;;;;;;;;5041642;28;20025;-78
2022/12/17 15:45:52;;;;;;;;;;;;;;;;;;5039552;28;20026;-76
2022/12/17 15:48:24;;;;;;;13.52;10.48;;;;;;;;;;5048192;28;19912;-76
2022/12/17 15:50:50;;;;;;;22.77;16.90;;;;;;;;;;5047135;28;20025;-76
2022/12/17 15:53:17;;;;;;;22.17;16.92;;;;;;;;;;5052336;28;20391;-76
2022/12/17 15:55:43;;;;;;;28.10;21.08;;;;;;;;;;5056720;28;20025;-74
2022/12/17 15:58:10;;;;;;;11.95;8.95;;;;;;;;;;5050145;28;20018;-77
2022/12/17 16:00:36;;;;;;;54.47;38.08;;;;;;;;;;5050060;28;20475;-76
2022/12/17 16:03:03;;;;;;;28.52;20.00;;;;;;;;;;5032145;28;20057;-77
2022/12/17 16:05:29;;;;;;;42.42;35.95;;;;;;;;;;5048796;28;20105;-75
2022/12/17 16:08:02;;;;;;;15.75;14.15;;;;;;;;;;5053267;28;20025;-78
2022/12/17 16:10:28;;;;;;;13.90;11.18;;;;;;;;;;5049972;28;20056;-76
2022/12/17 16:12:54;;;;;;;13.60;9.18;;;;;;;;;;5059628;28;20060;-76
2022/12/17 16:15:20;;;;;;;13.63;9.88;;;;;;;;;;5047485;28;20036;-78
2022/12/17 16:18:05;;;;;;;10.75;8.88;;;;;;;;;;5047944;28;20108;-75
2022/12/17 16:20:31;;;;;;;22.08;17.52;;;;;;;;;;5051388;28;20470;-76
2022/12/17 16:22:57;;;;;;;12.75;11.30;;;;;;;;;;5049431;28;20484;-76
2022/12/17 16:25:24;;;;;;;24.20;18.70;;;;;;;;;;5059490;28;20400;-76
2022/12/17 16:27:50;;;;;;;16.63;11.95;;;;;;;;;;5045720;28;20030;-76
2022/12/17 16:30:16;;;;;;;12.55;9.77;;;;;;;;;;5046850;28;20368;-77
2022/12/17 16:32:45;;;;;;;13.75;9.52;;;;;;;;;;5043398;28;20342;-76
2022/12/17 16:35:12;;;;;;;80.68;31.75;;;;;;;;;;5048163;28;20036;-77
2022/12/17 16:37:38;;;;;;;89.28;34.53;;;;;;;;;;5048343;28;20036;-76
2022/12/17 16:40:05;;;;;;;24.50;17.10;;;;;;;;;;5051461;28;20391;-77
2022/12/17 16:42:31;;;;;;;98.80;51.92;;;;;;;;;;5048581;28;20029;-78
2022/12/17 16:44:57;;;;;;;80.85;40.40;;;;;;;;;;5037361;28;20384;-76
2022/12/17 16:47:23;;;;;;;64.30;28.13;;;;;;;;;;5049151;28;20101;-77
2022/12/17 16:49:50;;;;;;;85.47;34.35;;;;;;;;;;5040233;28;20026;-75
2022/12/17 16:52:16;;;;;;;87.38;35.65;;;;;;;;;;5047633;28;20032;-76
2022/12/17 16:54:42;;;;;;;65.53;36.38;;;;;;;;;;5049307;28;20030;-76
2022/12/17 16:57:08;;;;;;;78.95;37.40;;;;;;;;;;5061679;28;20087;-77
2022/12/17 16:59:34;;;;;;;73.25;39.78;;;;;;;;;;5037530;28;20045;-76
2022/12/17 17:02:01;;;;;;;54.35;30.42;;;;;;;;;;5048634;28;20033;-77
2022/12/17 17:04:27;;;;;;;57.20;33.38;;;;;;;;;;5047401;28;20029;-76
2022/12/17 17:06:55;;;;;;;48.03;30.52;;;;;;;;;;5063530;28;20055;-76
2022/12/17 17:09:21;;;;;;;39.45;27.83;;;;;;;;;;5030472;28;20063;-76
2022/12/17 17:11:48;;;;;;;40.42;30.60;;;;;;;;;;5029374;28;20400;-76
2022/12/17 17:14:14;;;;;;;50.92;37.95;;;;;;;;;;5046890;28;20033;-76
2022/12/17 17:16:40;;;;;;;59.35;40.47;;;;;;;;;;5009944;28;20026;-77
2022/12/17 17:19:06;;;;;;;32.40;23.73;;;;;;;;;;5028313;28;20061;-77
2022/12/17 17:21:33;;;;;;;34.75;24.40;;;;;;;;;;5055668;28;20052;-77
2022/12/17 17:24:03;;;;;;;41.80;25.85;;;;;;;;;;5038076;28;20053;-76
2022/12/17 17:26:31;;;;;;;38.08;27.60;;;;;;;;;;5029691;28;20384;-77
2022/12/17 17:28:58;;;;;;;40.67;29.15;;;;;;;;;;5047023;28;20032;-77
2022/12/17 17:31:24;;;;;;;44.83;28.33;;;;;;;;;;5029826;28;20017;-75
2022/12/17 17:33:51;;;;;;;42.20;29.95;;;;;;;;;;5045911;28;20056;-78
2022/12/17 17:36:17;;;;;;;38.90;26.98;;;;;;;;;;5054916;28;20021;-78
2022/12/17 17:38:43;;;;;;;39.63;25.83;;;;;;;;;;5037434;28;20014;-79
2022/12/17 17:41:11;;;;;;;52.30;30.52;;;;;;;;;;5041705;28;20018;-76
2022/12/17 17:43:38;;;;;;;55.35;32.28;;;;;;;;;;5052047;28;20029;-77
2022/12/17 17:46:05;;;;;;;61.63;36.50;;;;;;;;;;5030720;28;20029;-77
2022/12/17 17:48:32;;;;;;;65.65;36.88;;;;;;;;;;5029786;28;20036;-77
2022/12/17 17:51:10;;;;;;;81.82;46.50;;;;;;;;;;5050306;28;20036;-77
2022/12/17 17:53:37;;;;;;;66.70;41.25;;;;;;;;;;5047343;28;20431;-77
2022/12/17 17:56:07;;;;;;;61.47;39.03;;;;;;;;;;5049571;28;20036;-76
2022/12/17 17:58:34;;;;;;;64.13;39.05;;;;;;;;;;5066842;28;20041;-76
2022/12/17 18:01:06;;;;;;;61.80;41.88;;;;;;;;;;5055217;28;20029;-77
2022/12/17 18:03:33;;;;;;;62.22;38.95;;;;;;;;;;5049718;28;20031;-78
2022/12/17 18:06:02;;;;;;;70.28;41.25;;;;;;;;;;5046747;28;20021;-77
2022/12/17 18:08:29;;;;;;;63.13;40.30;;;;;;;;;;5057275;28;20032;-77
2022/12/17 18:10:56;;;;;;;59.42;37.70;;;;;;;;;;5052913;28;20048;-77
2022/12/17 18:16:07;;;;;;;53.83;34.17;;;;;;;;;;5050286;28;20048;-78
2022/12/17 18:18:33;;;;;;;48.67;31.70;;;;;;;;;;5069186;28;20033;-79
2022/12/17 18:21:03;;;;;;;45.13;28.15;;;;;;;;;;5050013;28;20021;-78
2022/12/17 18:23:30;;;;;;;45.47;28.58;;;;;;;;;;5043527;28;20056;-79
2022/12/17 18:25:56;;;;;;;46.03;27.90;;;;;;;;;;5051567;28;20025;-76
2022/12/17 18:28:22;;;;;;;39.90;26.05;;;;;;;;;;5051510;28;20025;-78
2022/12/17 18:30:48;;;;;;;43.35;27.00;;;;;;;;;;5054281;28;20029;-76
2022/12/17 18:33:14;;;;;;;57.53;32.90;;;;;;;;;;5064106;28;20028;-77
2022/12/17 18:35:40;;;;;;;48.17;33.70;;;;;;;;;;5049925;28;20014;-77
2022/12/17 18:38:06;;;;;;;52.75;32.80;;;;;;;;;;5046626;28;20064;-77
2022/12/17 18:40:35;;;;;;;53.25;34.55;;;;;;;;;;5057512;28;20025;-77
2022/12/17 18:45:46;;;;;;;65.90;42.92;;;;;;;;;;5028954;28;20086;-78
2022/12/17 18:48:12;;;;;;;98.82;60.30;;;;;;;;;;5047027;28;20056;-76
2022/12/17 18:50:38;;;;;;;90.32;55.67;;;;;;;;;;5023879;28;20026;-78
2022/12/17 18:53:04;;;;;;;107.63;66.90;;;;;;;;;;5048308;28;20037;-76
2022/12/17 18:55:30;;;;;;;101.30;61.03;;;;;;;;;;5047438;28;20030;-80
2022/12/17 18:57:57;;;;;;;104.38;58.40;;;;;;;;;;5048850;28;20030;-78
2022/12/17 19:00:23;;;;;;;103.43;56.95;;;;;;;;;;5033694;28;20049;-78
2022/12/17 19:02:49;;;;;;;94.15;55.63;;;;;;;;;;5046524;28;20033;-78
2022/12/17 19:05:15;;;;;;;131.07;61.80;;;;;;;;;;5043945;28;20137;-77
2022/12/17 19:07:41;;;;;;;97.97;53.63;;;;;;;;;;5028373;28;20038;-77
2022/12/17 19:10:07;;;;;;;90.75;52.35;;;;;;;;;;5043663;28;20029;-78
2022/12/17 19:12:34;;;;;;;85.80;52.38;;;;;;;;;;5048829;28;20033;-77
2022/12/17 19:15:00;;;;;;;88.10;52.08;;;;;;;;;;5047814;28;20026;-77
2022/12/17 19:17:26;;;;;;;102.13;60.80;;;;;;;;;;5048308;28;20108;-78
2022/12/17 19:19:52;;;;;;;107.75;61.45;;;;;;;;;;5037166;28;20036;-77
2022/12/17 19:22:19;;;;;;;118.47;68.75;;;;;;;;;;5048236;28;20061;-77
2022/12/17 19:24:45;;;;;;;131.35;69.57;;;;;;;;;;5048596;28;20025;-77
2022/12/17 19:27:11;;;;;;;135.75;71.93;;;;;;;;;;5048387;28;20052;-77
2022/12/17 19:29:37;;;;;;;129.75;73.38;;;;;;;;;;5044038;28;20033;-79
2022/12/17 19:32:03;;;;;;;137.52;76.35;;;;;;;;;;5047436;28;20021;-76
2022/12/17 19:34:30;;;;;;;139.18;72.32;;;;;;;;;;5045835;28;20048;-77
2022/12/17 19:36:56;;;;;;;134.75;72.70;;;;;;;;;;5048714;28;20033;-78
2022/12/17 19:39:22;;;;;;;143.63;76.43;;;;;;;;;;5049848;28;20045;-77
2022/12/17 19:41:49;;;;;;;131.82;74.68;;;;;;;;;;5049790;28;20369;-76
2022/12/17 19:44:16;;;;;;;136.05;74.80;;;;;;;;;;5045540;28;20033;-77
2022/12/17 19:46:42;;;;;;;136.98;73.30;;;;;;;;;;5041605;28;20033;-77
2022/12/17 19:49:12;;;;;;;116.38;68.47;;;;;;;;;;5058723;28;20108;-76
2022/12/17 19:51:40;;;;;;;124.88;72.65;;;;;;;;;;5041550;28;20104;-78
2022/12/17 19:54:06;;;;;;;121.60;69.25;;;;;;;;;;5029891;28;20071;-78
2022/12/17 19:56:32;;;;;;;121.38;66.65;;;;;;;;;;5057287;28;20029;-76
2022/12/17 19:59:00;;;;;;;99.85;60.53;;;;;;;;;;5040573;28;20050;-76
2022/12/17 20:01:31;;;;;;;109.30;64.63;;;;;;;;;;5048035;28;20018;-76
2022/12/17 20:03:57;;;;;;;101.75;58.38;;;;;;;;;;5046351;28;20056;-78
2022/12/17 20:06:28;;;;;;;103.78;57.38;;;;;;;;;;5050800;28;20464;-76
2022/12/17 20:08:54;;;;;;;106.40;60.53;;;;;;;;;;5048783;28;20070;-76
2022/12/17 20:11:33;;;;;;;76.47;48.22;;;;;;;;;;5048430;28;20026;-77
2022/12/17 20:14:03;;;;;;;76.80;47.03;;;;;;;;;;5028967;28;20105;-77
2022/12/17 20:16:30;;;;;;;101.38;59.17;;;;;;;;;;5047363;28;20067;-78
2022/12/17 20:18:58;;;;;;;97.25;58.33;;;;;;;;;;5029371;28;20093;-78
2022/12/17 20:21:24;;;;;;;88.95;52.92;;;;;;;;;;5047855;28;20018;-78
2022/12/17 20:23:50;;;;;;;79.75;48.72;;;;;;;;;;5049603;28;20108;-79
2022/12/17 20:26:17;;;;;;;84.38;50.13;;;;;;;;;;5047153;28;20018;-79
2022/12/17 20:28:43;;;;;;;84.88;52.45;;;;;;;;;;5048653;28;20028;-77
2022/12/17 20:31:09;;;;;;;76.90;46.80;;;;;;;;;;5051568;28;20061;-77
2022/12/17 20:33:36;;;;;;;78.57;50.10;;;;;;;;;;5044306;28;20041;-76
2022/12/17 20:36:06;;;;;;;84.18;52.40;;;;;;;;;;5045747;28;20028;-77
2022/12/17 20:38:32;;;;;;;84.95;55.17;;;;;;;;;;5036210;28;20026;-79
2022/12/17 20:40:59;;;;;;;80.63;49.72;;;;;;;;;;5040796;28;20017;-78
2022/12/17 20:43:26;;;;;;;85.22;51.08;;;;;;;;;;5046213;28;20563;-78
2022/12/17 20:45:58;;;;;;;77.75;48.85;;;;;;;;;;5047920;28;20088;-77
2022/12/17 20:48:25;;;;;;;70.97;47.42;;;;;;;;;;5032294;28;20100;-78
2022/12/17 20:51:09;;;;;;;82.13;51.05;;;;;;;;;;5050270;28;20561;-76
2022/12/17 20:53:35;;;;;;;79.93;50.13;;;;;;;;;;5049740;28;20029;-77
2022/12/17 20:56:03;;;;;;;81.50;50.53;;;;;;;;;;5049304;28;20060;-77
2022/12/17 20:58:29;;;;;;;93.32;56.60;;;;;;;;;;5046494;28;20037;-76
2022/12/17 21:01:06;;;;;;;86.57;50.83;;;;;;;;;;5038936;28;20534;-78
2022/12/17 21:03:33;;;;;;;81.00;48.35;;;;;;;;;;5048139;28;20365;-78
2022/12/17 21:06:08;;;;;;;76.30;47.25;;;;;;;;;;5037129;28;20026;-80
2022/12/17 21:08:34;;;;;;;77.60;46.20;;;;;;;;;;5031079;28;20122;-77
2022/12/17 21:11:01;;;;;;;76.28;44.50;;;;;;;;;;5041811;28;20026;-78
2022/12/17 21:13:27;;;;;;;74.13;46.50;;;;;;;;;;5047065;28;20044;-80
2022/12/17 21:15:54;;;;;;;77.63;49.28;;;;;;;;;;5058150;28;20030;-78
2022/12/17 21:18:20;;;;;;;81.53;49.53;;;;;;;;;;5052433;28;20076;-76
2022/12/17 21:21:15;;;;;;;71.90;49.08;;;;;;;;;;5049290;28;20022;-77
2022/12/17 21:23:41;;;;;;;68.07;44.28;;;;;;;;;;5046496;28;20022;-75
2022/12/17 21:26:28;;;;;;;65.45;41.67;;;;;;;;;;5042818;28;20026;-76
2022/12/17 21:28:57;;;;;;;63.33;37.75;;;;;;;;;;5053707;28;20028;-77
2022/12/17 21:31:28;;;;;;;42.80;27.92;;;;;;;;;;5030916;28;20472;-75
2022/12/17 21:33:55;;;;;;;41.90;28.02;;;;;;;;;;5056739;28;20037;-76
2022/12/17 21:36:22;;;;;;;51.83;31.90;;;;;;;;;;5042108;28;20018;-77
2022/12/17 21:38:48;;;;;;;97.78;46.10;;;;;;;;;;5035327;28;20057;-78
2022/12/17 21:41:16;;;;;;;67.57;35.00;;;;;;;;;;5040200;28;20063;-75
2022/12/17 21:43:42;;;;;;;61.95;34.40;;;;;;;;;;5045743;28;20021;-76
2022/12/17 21:46:09;;;;;;;58.13;33.17;;;;;;;;;;5049863;28;20025;-78
2022/12/17 21:48:37;;;;;;;61.95;33.13;;;;;;;;;;5044111;28;20022;-77
2022/12/17 21:51:04;;;;;;;64.13;34.95;;;;;;;;;;5044238;28;20084;-77
2022/12/17 21:53:30;;;;;;;48.85;26.23;;;;;;;;;;5043292;28;20026;-77
2022/12/17 21:56:07;;;;;;;29.80;16.90;;;;;;;;;;5049703;28;20033;-77
2022/12/17 21:58:33;;;;;;;28.00;16.48;;;;;;;;;;5048964;28;20077;-77
2022/12/17 22:01:21;;;;;;;21.90;14.88;;;;;;;;;;5047980;28;20044;-77
2022/12/17 22:03:47;;;;;;;18.10;12.77;;;;;;;;;;5050713;28;20047;-77
2022/12/17 22:06:15;;;;;;;24.58;14.48;;;;;;;;;;5032804;28;20034;-76
2022/12/17 22:08:41;;;;;;;21.10;14.00;;;;;;;;;;5044348;28;20051;-77
2022/12/17 22:11:11;;;;;;;20.50;13.30;;;;;;;;;;5034890;28;20036;-75
2022/12/17 22:16:24;;;;;;;37.38;26.60;;;;;;;;;;5041439;28;20035;-78
2022/12/17 22:18:50;;;;;;;40.85;29.55;;;;;;;;;;5028980;28;20026;-79
2022/12/17 22:21:17;;;;;;;21.60;15.07;;;;;;;;;;5043513;28;20052;-79
2022/12/17 22:23:45;;;;;;;13.25;10.25;;;;;;;;;;5039473;28;20055;-75
2022/12/17 22:26:11;;;;;;;19.85;13.73;;;;;;;;;;5056676;28;20094;-78
2022/12/17 22:28:38;;;;;;;15.32;10.65;;;;;;;;;;5044099;28;20030;-75
2022/12/17 22:33:52;;;;;;;12.75;7.65;;;;;;;;;;5039615;28;20072;-76
2022/12/17 22:36:18;;;;;;;16.52;10.95;;;;;;;;;;5026740;28;20042;-78
2022/12/17 22:38:45;;;;;;;26.65;15.90;;;;;;;;;;5046413;28;20037;-76
2022/12/17 22:43:28;;;;;;;19.65;12.13;;;;;;;;;;5055340;28;20554;-78
2022/12/17 22:43:57;;;;;;;;;;;;;;;;;;5044774;28;20069;-77
2022/12/17 22:46:23;;;;;;;12.82;8.95;;;;;;;;;;5057172;28;19944;-78
2022/12/17 22:48:49;;;;;;;12.07;8.27;;;;;;;;;;5036365;28;20472;-76
2022/12/17 22:51:16;;;;;;;13.45;7.05;;;;;;;;;;5008738;28;20045;-75
2022/12/17 22:53:42;;;;;;;11.48;7.07;;;;;;;;;;5033920;28;20026;-77
2022/12/17 22:56:09;;;;;;;17.27;8.88;;;;;;;;;;5058245;28;20071;-78
2022/12/17 22:58:37;;;;;;;17.05;10.05;;;;;;;;;;5048372;28;20104;-77
2022/12/17 23:01:04;;;;;;;20.58;11.82;;;;;;;;;;5028656;28;20075;-78
2022/12/17 23:03:30;;;;;;;18.02;12.00;;;;;;;;;;5041529;28;20050;-79
2022/12/17 23:06:07;;;;;;;15.88;11.13;;;;;;;;;;5049133;28;20021;-77
2022/12/17 23:08:35;;;;;;;14.85;10.85;;;;;;;;;;5039665;28;20076;-77
2022/12/17 23:11:09;;;;;;;18.15;12.90;;;;;;;;;;5040100;28;20017;-78
2022/12/17 23:13:36;;;;;;;16.45;12.25;;;;;;;;;;5034695;28;20042;-78
2022/12/17 23:16:03;;;;;;;34.33;18.90;;;;;;;;;;5037163;28;20026;-78
2022/12/17 23:18:30;;;;;;;45.28;24.95;;;;;;;;;;5067437;28;20490;-77
2022/12/17 23:20:56;;;;;;;51.72;27.85;;;;;;;;;;5041049;28;20032;-76
2022/12/17 23:23:22;;;;;;;45.83;22.92;;;;;;;;;;5041983;28;20033;-78
2022/12/17 23:25:48;;;;;;;41.63;20.70;;;;;;;;;;5052385;28;20021;-79
2022/12/17 23:28:14;;;;;;;41.22;23.70;;;;;;;;;;5046943;28;20035;-73
2022/12/17 23:30:40;;;;;;;44.38;22.75;;;;;;;;;;5033827;28;20454;-77
2022/12/17 23:33:07;;;;;;;40.33;23.80;;;;;;;;;;5056179;28;20046;-76
2022/12/17 23:35:33;;;;;;;34.10;21.63;;;;;;;;;;5046012;28;20040;-76
2022/12/17 23:37:59;;;;;;;31.77;20.92;;;;;;;;;;5036152;28;20029;-75
2022/12/17 23:40:25;;;;;;;26.52;18.77;;;;;;;;;;5046621;28;20030;-78
2022/12/17 23:42:51;;;;;;;28.60;18.77;;;;;;;;;;5046356;28;20045;-77
2022/12/17 23:45:17;;;;;;;31.25;17.75;;;;;;;;;;5040541;28;20033;-77
2022/12/17 23:47:43;;;;;;;30.90;18.40;;;;;;;;;;5045916;28;20017;-76
2022/12/17 23:50:10;;;;;;;28.52;17.33;;;;;;;;;;5047568;28;20105;-76
2022/12/17 23:52:37;;;;;;;40.38;21.77;;;;;;;;;;5044778;28;20372;-78
2022/12/17 23:55:03;;;;;;;30.77;20.60;;;;;;;;;;5040893;28;20036;-76
2022/12/17 23:57:29;;;;;;;39.53;23.70;;;;;;;;;;5030783;28;20029;-78
2022/12/17 23:59:55;;;;;;;32.20;20.33;;;;;;;;;;5048283;28;20076;-78
